sensor_id;sensor_type;location;lat;lon;timestamp;temperature;humidity
18041;DHT22;9145;48.588;9.250;2022-08-19T00:00:48;21.10;99.90
18041;DHT22;9145;48.588;9.250;2022-08-19T00:03:15;21.00;99.90
18041;DHT22;9145;48.588;9.250;2022-08-19T00:05:42;20.90;99.90
18041;DHT22;9145;48.588;9.250;2022-08-19T00:08:11;20.90;99.90
18041;DHT22;9145;48.588;9.250;2022-08-19T00:10:38;21.00;99.90
18041;DHT22;9145;48.588;9.250;2022-08-19T00:13:04;21.00;99.90
18041;DHT22;9145;48.588;9.250;2022-08-19T00:15:31;21.00;99.90
18041;DHT22;9145;48.588;9.250;2022-08-19T00:17:58;21.00;99.90
18041;DHT22;9145;48.588;9.250;2022-08-19T00:20:25;21.00;99.90
18041;DHT22;9145;48.588;9.250;2022-08-19T00:22:52;21.00;99.90
18041;DHT22;9145;48.588;9.250;2022-08-19T00:25:24;21.00;99.90
18041;DHT22;9145;48.588;9.250;2022-08-19T00:27:51;21.00;99.90
18041;DHT22;9145;48.588;9.250;2022-08-19T00:30:18;21.00;99.90
18041;DHT22;9145;48.588;9.250;2022-08-19T00:32:45;21.00;99.90
18041;DHT22;9145;48.588;9.250;2022-08-19T00:35:12;20.90;99.90
18041;DHT22;9145;48.588;9.250;2022-08-19T00:37:39;20.90;99.90
18041;DHT22;9145;48.588;9.250;2022-08-19T00:40:10;20.90;99.90
18041;DHT22;9145;48.588;9.250;2022-08-19T00:42:39;20.90;99.90
18041;DHT22;9145;48.588;9.250;2022-08-19T00:45:11;20.90;99.90
18041;DHT22;9145;48.588;9.250;2022-08-19T00:47:38;20.90;99.90
18041;DHT22;9145;48.588;9.250;2022-08-19T00:50:08;20.80;99.90
18041;DHT22;9145;48.588;9.250;2022-08-19T00:52:38;20.80;99.90
18041;DHT22;9145;48.588;9.250;2022-08-19T00:55:09;20.80;99.90
18041;DHT22;9145;48.588;9.250;2022-08-19T00:57:40;20.70;99.90
18041;DHT22;9145;48.588;9.250;2022-08-19T01:00:13;20.70;99.90
18041;DHT22;9145;48.588;9.250;2022-08-19T01:02:41;20.70;99.90
18041;DHT22;9145;48.588;9.250;2022-08-19T01:05:18;20.70;99.90
18041;DHT22;9145;48.588;9.250;2022-08-19T01:07:47;20.60;99.90
18041;DHT22;9145;48.588;9.250;2022-08-19T01:10:19;20.60;99.90
18041;DHT22;9145;48.588;9.250;2022-08-19T01:12:48;20.60;99.90
18041;DHT22;9145;48.588;9.250;2022-08-19T01:15:18;20.50;99.90
18041;DHT22;9145;48.588;9.250;2022-08-19T01:17:46;20.50;99.90
18041;DHT22;9145;48.588;9.250;2022-08-19T01:20:16;20.40;99.90
18041;DHT22;9145;48.588;9.250;2022-08-19T01:23:04;20.40;99.90
18041;DHT22;9145;48.588;9.250;2022-08-19T01:25:34;20.30;99.90
18041;DHT22;9145;48.588;9.250;2022-08-19T01:28:02;20.30;99.90
18041;DHT22;9145;48.588;9.250;2022-08-19T01:30:32;20.20;99.90
18041;DHT22;9145;48.588;9.250;2022-08-19T01:33:00;20.20;99.90
18041;DHT22;9145;48.588;9.250;2022-08-19T01:35:29;20.20;99.90
18041;DHT22;9145;48.588;9.250;2022-08-19T01:38:01;20.30;99.90
18041;DHT22;9145;48.588;9.250;2022-08-19T01:40:29;20.30;99.90
18041;DHT22;9145;48.588;9.250;2022-08-19T01:42:57;20.30;99.90
18041;DHT22;9145;48.588;9.250;2022-08-19T01:45:26;20.30;99.90
18041;DHT22;9145;48.588;9.250;2022-08-19T01:47:54;20.30;99.90
18041;DHT22;9145;48.588;9.250;2022-08-19T01:50:21;20.30;99.90
18041;DHT22;9145;48.588;9.250;2022-08-19T01:52:48;20.30;99.90
18041;DHT22;9145;48.588;9.250;2022-08-19T01:55:19;20.30;99.90
18041;DHT22;9145;48.588;9.250;2022-08-19T01:57:50;20.30;99.90
18041;DHT22;9145;48.588;9.250;2022-08-19T02:00:20;20.40;99.90
18041;DHT22;9145;48.588;9.250;2022-08-19T02:02:47;20.30;99.90
18041;DHT22;9145;48.588;9.250;2022-08-19T02:05:14;20.30;99.90
18041;DHT22;9145;48.588;9.250;2022-08-19T02:07:43;20.30;99.90
18041;DHT22;9145;48.588;9.250;2022-08-19T02:10:15;20.30;99.90
18041;DHT22;9145;48.588;9.250;2022-08-19T02:12:44;20.30;99.90
18041;DHT22;9145;48.588;9.250;2022-08-19T02:15:12;20.30;99.90
18041;DHT22;9145;48.588;9.250;2022-08-19T02:17:39;20.30;99.90
18041;DHT22;9145;48.588;9.250;2022-08-19T02:20:07;20.20;99.90
18041;DHT22;9145;48.588;9.250;2022-08-19T02:22:34;20.20;99.90
18041;DHT22;9145;48.588;9.250;2022-08-19T02:25:02;20.20;99.90
18041;DHT22;9145;48.588;9.250;2022-08-19T02:27:29;20.20;99.90
18041;DHT22;9145;48.588;9.250;2022-08-19T02:29:57;20.20;99.90
18041;DHT22;9145;48.588;9.250;2022-08-19T02:32:24;20.20;99.90
18041;DHT22;9145;48.588;9.250;2022-08-19T02:34:51;20.20;99.90
18041;DHT22;9145;48.588;9.250;2022-08-19T02:37:18;20.20;99.90
18041;DHT22;9145;48.588;9.250;2022-08-19T02:40:14;20.20;99.90
18041;DHT22;9145;48.588;9.250;2022-08-19T02:42:43;20.20;99.90
18041;DHT22;9145;48.588;9.250;2022-08-19T02:45:13;20.20;99.90
18041;DHT22;9145;48.588;9.250;2022-08-19T02:47:40;20.20;99.90
18041;DHT22;9145;48.588;9.250;2022-08-19T02:50:08;20.20;99.90
18041;DHT22;9145;48.588;9.250;2022-08-19T02:52:36;20.20;99.90
18041;DHT22;9145;48.588;9.250;2022-08-19T02:55:04;20.20;99.90
18041;DHT22;9145;48.588;9.250;2022-08-19T02:57:31;20.20;99.90
18041;DHT22;9145;48.588;9.250;2022-08-19T02:59:59;20.20;99.90
18041;DHT22;9145;48.588;9.250;2022-08-19T03:02:28;20.20;99.90
18041;DHT22;9145;48.588;9.250;2022-08-19T03:04:56;20.20;99.90
18041;DHT22;9145;48.588;9.250;2022-08-19T03:07:23;20.20;99.90
18041;DHT22;9145;48.588;9.250;2022-08-19T03:09:49;20.30;99.90
18041;DHT22;9145;48.588;9.250;2022-08-19T03:12:16;20.20;99.90
18041;DHT22;9145;48.588;9.250;2022-08-19T03:14:43;20.20;99.90
18041;DHT22;9145;48.588;9.250;2022-08-19T03:17:11;20.20;99.90
18041;DHT22;9145;48.588;9.250;2022-08-19T03:19:39;20.20;99.90
18041;DHT22;9145;48.588;9.250;2022-08-19T03:22:06;20.20;99.90
18041;DHT22;9145;48.588;9.250;2022-08-19T03:24:33;20.20;99.90
18041;DHT22;9145;48.588;9.250;2022-08-19T03:27:00;20.20;99.90
18041;DHT22;9145;48.588;9.250;2022-08-19T03:29:29;20.20;99.90
18041;DHT22;9145;48.588;9.250;2022-08-19T03:31:57;20.20;99.90
18041;DHT22;9145;48.588;9.250;2022-08-19T03:34:28;20.30;99.90
18041;DHT22;9145;48.588;9.250;2022-08-19T03:36:58;20.20;99.90
18041;DHT22;9145;48.588;9.250;2022-08-19T03:39:26;20.20;99.90
18041;DHT22;9145;48.588;9.250;2022-08-19T03:41:54;20.20;99.90
18041;DHT22;9145;48.588;9.250;2022-08-19T03:44:23;20.20;99.90
18041;DHT22;9145;48.588;9.250;2022-08-19T03:46:51;20.10;99.90
18041;DHT22;9145;48.588;9.250;2022-08-19T03:49:20;20.20;99.90
18041;DHT22;9145;48.588;9.250;2022-08-19T03:51:48;20.20;99.90
18041;DHT22;9145;48.588;9.250;2022-08-19T03:54:18;20.10;99.90
18041;DHT22;9145;48.588;9.250;2022-08-19T03:56:47;20.20;99.90
18041;DHT22;9145;48.588;9.250;2022-08-19T03:59:17;20.20;99.90
18041;DHT22;9145;48.588;9.250;2022-08-19T04:01:44;20.10;99.90
18041;DHT22;9145;48.588;9.250;2022-08-19T04:04:11;20.00;99.90
18041;DHT22;9145;48.588;9.250;2022-08-19T04:06:39;20.00;99.90
18041;DHT22;9145;48.588;9.250;2022-08-19T04:09:08;20.00;99.90
18041;DHT22;9145;48.588;9.250;2022-08-19T04:11:41;19.90;99.90
18041;DHT22;9145;48.588;9.250;2022-08-19T04:14:09;19.90;99.90
18041;DHT22;9145;48.588;9.250;2022-08-19T04:16:37;19.90;99.90
18041;DHT22;9145;48.588;9.250;2022-08-19T04:19:05;19.90;99.90
18041;DHT22;9145;48.588;9.250;2022-08-19T04:21:33;19.90;99.90
18041;DHT22;9145;48.588;9.250;2022-08-19T04:24:00;19.90;99.90
18041;DHT22;9145;48.588;9.250;2022-08-19T04:26:33;19.90;99.90
18041;DHT22;9145;48.588;9.250;2022-08-19T04:29:04;19.80;99.90
18041;DHT22;9145;48.588;9.250;2022-08-19T04:31:32;19.90;99.90
18041;DHT22;9145;48.588;9.250;2022-08-19T04:34:03;19.80;99.90
18041;DHT22;9145;48.588;9.250;2022-08-19T04:36:32;19.90;99.90
18041;DHT22;9145;48.588;9.250;2022-08-19T04:39:02;19.80;99.90
18041;DHT22;9145;48.588;9.250;2022-08-19T04:41:29;19.70;99.90
18041;DHT22;9145;48.588;9.250;2022-08-19T04:44:14;19.70;99.90
18041;DHT22;9145;48.588;9.250;2022-08-19T04:46:44;19.60;99.90
18041;DHT22;9145;48.588;9.250;2022-08-19T04:49:12;19.70;99.90
18041;DHT22;9145;48.588;9.250;2022-08-19T04:51:40;19.70;99.90
18041;DHT22;9145;48.588;9.250;2022-08-19T04:54:08;19.80;99.90
18041;DHT22;9145;48.588;9.250;2022-08-19T04:56:35;19.80;99.90
18041;DHT22;9145;48.588;9.250;2022-08-19T04:59:02;19.80;99.90
18041;DHT22;9145;48.588;9.250;2022-08-19T05:01:32;19.80;99.90
18041;DHT22;9145;48.588;9.250;2022-08-19T05:04:01;19.90;99.90
18041;DHT22;9145;48.588;9.250;2022-08-19T05:06:30;19.90;99.90
18041;DHT22;9145;48.588;9.250;2022-08-19T05:08:59;19.90;99.90
18041;DHT22;9145;48.588;9.250;2022-08-19T05:11:28;20.00;99.90
18041;DHT22;9145;48.588;9.250;2022-08-19T05:13:56;20.00;99.90
18041;DHT22;9145;48.588;9.250;2022-08-19T05:16:25;20.00;99.90
18041;DHT22;9145;48.588;9.250;2022-08-19T05:18:54;20.00;99.90
18041;DHT22;9145;48.588;9.250;2022-08-19T05:21:40;20.10;99.90
18041;DHT22;9145;48.588;9.250;2022-08-19T05:24:24;20.20;99.90
18041;DHT22;9145;48.588;9.250;2022-08-19T05:26:52;20.10;99.90
18041;DHT22;9145;48.588;9.250;2022-08-19T05:29:22;20.10;99.90
18041;DHT22;9145;48.588;9.250;2022-08-19T05:31:50;20.10;99.90
18041;DHT22;9145;48.588;9.250;2022-08-19T05:34:20;20.10;99.90
18041;DHT22;9145;48.588;9.250;2022-08-19T05:36:49;20.10;99.90
18041;DHT22;9145;48.588;9.250;2022-08-19T05:39:20;20.00;99.90
18041;DHT22;9145;48.588;9.250;2022-08-19T05:41:49;20.00;99.90
18041;DHT22;9145;48.588;9.250;2022-08-19T05:44:18;20.10;99.90
18041;DHT22;9145;48.588;9.250;2022-08-19T05:46:48;20.10;99.90
18041;DHT22;9145;48.588;9.250;2022-08-19T05:49:20;20.00;99.90
18041;DHT22;9145;48.588;9.250;2022-08-19T05:51:48;20.00;99.90
18041;DHT22;9145;48.588;9.250;2022-08-19T05:54:15;20.00;99.90
18041;DHT22;9145;48.588;9.250;2022-08-19T05:56:43;20.00;99.90
18041;DHT22;9145;48.588;9.250;2022-08-19T05:59:14;20.00;99.90
18041;DHT22;9145;48.588;9.250;2022-08-19T06:01:43;20.00;99.90
18041;DHT22;9145;48.588;9.250;2022-08-19T06:04:10;20.10;99.90
18041;DHT22;9145;48.588;9.250;2022-08-19T06:06:40;20.10;99.90
18041;DHT22;9145;48.588;9.250;2022-08-19T06:09:07;20.10;99.90
18041;DHT22;9145;48.588;9.250;2022-08-19T06:11:37;20.10;99.90
18041;DHT22;9145;48.588;9.250;2022-08-19T06:14:06;20.10;99.90
18041;DHT22;9145;48.588;9.250;2022-08-19T06:16:34;20.10;99.90
18041;DHT22;9145;48.588;9.250;2022-08-19T06:19:03;20.10;99.90
18041;DHT22;9145;48.588;9.250;2022-08-19T06:21:33;20.10;99.90
18041;DHT22;9145;48.588;9.250;2022-08-19T06:24:05;20.10;99.90
18041;DHT22;9145;48.588;9.250;2022-08-19T06:26:33;20.10;99.90
18041;DHT22;9145;48.588;9.250;2022-08-19T06:29:01;20.10;99.90
18041;DHT22;9145;48.588;9.250;2022-08-19T06:31:29;20.10;99.90
18041;DHT22;9145;48.588;9.250;2022-08-19T06:33:56;20.10;99.90
18041;DHT22;9145;48.588;9.250;2022-08-19T06:36:25;20.10;99.90
18041;DHT22;9145;48.588;9.250;2022-08-19T06:38:57;20.10;99.90
18041;DHT22;9145;48.588;9.250;2022-08-19T06:41:26;20.10;99.90
18041;DHT22;9145;48.588;9.250;2022-08-19T06:43:53;20.10;99.90
18041;DHT22;9145;48.588;9.250;2022-08-19T06:46:21;20.10;99.90
18041;DHT22;9145;48.588;9.250;2022-08-19T06:48:48;20.10;99.90
18041;DHT22;9145;48.588;9.250;2022-08-19T06:51:17;20.10;99.90
18041;DHT22;9145;48.588;9.250;2022-08-19T06:53:44;20.10;99.90
18041;DHT22;9145;48.588;9.250;2022-08-19T06:56:13;20.10;99.90
18041;DHT22;9145;48.588;9.250;2022-08-19T06:58:41;20.10;99.90
18041;DHT22;9145;48.588;9.250;2022-08-19T07:01:08;20.10;99.90
18041;DHT22;9145;48.588;9.250;2022-08-19T07:03:36;20.10;99.90
18041;DHT22;9145;48.588;9.250;2022-08-19T07:06:04;20.00;99.90
18041;DHT22;9145;48.588;9.250;2022-08-19T07:08:32;20.10;99.90
18041;DHT22;9145;48.588;9.250;2022-08-19T07:10:59;20.10;99.90
18041;DHT22;9145;48.588;9.250;2022-08-19T07:13:26;20.10;99.90
18041;DHT22;9145;48.588;9.250;2022-08-19T07:15:54;20.10;99.90
18041;DHT22;9145;48.588;9.250;2022-08-19T07:18:21;20.10;99.90
18041;DHT22;9145;48.588;9.250;2022-08-19T07:20:48;20.10;99.90
18041;DHT22;9145;48.588;9.250;2022-08-19T07:23:15;20.10;99.90
18041;DHT22;9145;48.588;9.250;2022-08-19T07:25:44;20.10;99.90
18041;DHT22;9145;48.588;9.250;2022-08-19T07:28:12;20.10;99.90
18041;DHT22;9145;48.588;9.250;2022-08-19T07:30:38;20.10;99.90
18041;DHT22;9145;48.588;9.250;2022-08-19T07:33:07;20.10;99.90
18041;DHT22;9145;48.588;9.250;2022-08-19T07:35:34;20.00;99.90
18041;DHT22;9145;48.588;9.250;2022-08-19T07:38:01;20.10;99.90
18041;DHT22;9145;48.588;9.250;2022-08-19T07:40:29;20.10;99.90
18041;DHT22;9145;48.588;9.250;2022-08-19T07:42:56;20.00;99.90
18041;DHT22;9145;48.588;9.250;2022-08-19T07:45:23;20.10;99.90
18041;DHT22;9145;48.588;9.250;2022-08-19T07:47:50;20.10;99.90
18041;DHT22;9145;48.588;9.250;2022-08-19T07:50:20;20.10;99.90
18041;DHT22;9145;48.588;9.250;2022-08-19T07:52:48;20.20;99.90
18041;DHT22;9145;48.588;9.250;2022-08-19T07:55:17;20.10;99.90
18041;DHT22;9145;48.588;9.250;2022-08-19T07:57:44;20.20;99.90
18041;DHT22;9145;48.588;9.250;2022-08-19T08:00:12;20.20;99.90
18041;DHT22;9145;48.588;9.250;2022-08-19T08:02:39;20.20;99.90
18041;DHT22;9145;48.588;9.250;2022-08-19T08:05:08;20.20;99.90
18041;DHT22;9145;48.588;9.250;2022-08-19T08:07:54;20.20;99.90
18041;DHT22;9145;48.588;9.250;2022-08-19T08:10:38;20.20;99.90
18041;DHT22;9145;48.588;9.250;2022-08-19T08:13:05;20.20;99.90
18041;DHT22;9145;48.588;9.250;2022-08-19T08:15:32;20.30;99.90
18041;DHT22;9145;48.588;9.250;2022-08-19T08:17:59;20.30;99.90
18041;DHT22;9145;48.588;9.250;2022-08-19T08:20:26;20.30;99.90
18041;DHT22;9145;48.588;9.250;2022-08-19T08:22:54;20.30;99.90
18041;DHT22;9145;48.588;9.250;2022-08-19T08:25:39;20.20;99.90
18041;DHT22;9145;48.588;9.250;2022-08-19T08:28:05;20.20;99.90
18041;DHT22;9145;48.588;9.250;2022-08-19T08:30:34;20.20;99.90
18041;DHT22;9145;48.588;9.250;2022-08-19T08:33:03;20.10;99.90
18041;DHT22;9145;48.588;9.250;2022-08-19T08:35:30;20.10;99.90
18041;DHT22;9145;48.588;9.250;2022-08-19T08:37:58;20.10;99.90
18041;DHT22;9145;48.588;9.250;2022-08-19T08:40:28;20.10;99.90
18041;DHT22;9145;48.588;9.250;2022-08-19T08:42:58;20.10;99.90
18041;DHT22;9145;48.588;9.250;2022-08-19T08:45:31;20.10;99.90
18041;DHT22;9145;48.588;9.250;2022-08-19T08:48:04;20.10;99.90
18041;DHT22;9145;48.588;9.250;2022-08-19T08:50:41;20.10;99.90
18041;DHT22;9145;48.588;9.250;2022-08-19T08:53:18;20.10;99.90
18041;DHT22;9145;48.588;9.250;2022-08-19T08:55:46;20.10;99.90
18041;DHT22;9145;48.588;9.250;2022-08-19T08:58:17;20.10;99.90
18041;DHT22;9145;48.588;9.250;2022-08-19T09:00:47;20.10;99.90
18041;DHT22;9145;48.588;9.250;2022-08-19T09:03:18;20.10;99.90
18041;DHT22;9145;48.588;9.250;2022-08-19T09:06:01;20.10;99.90
18041;DHT22;9145;48.588;9.250;2022-08-19T09:08:40;20.20;99.90
18041;DHT22;9145;48.588;9.250;2022-08-19T09:11:14;20.20;99.90
18041;DHT22;9145;48.588;9.250;2022-08-19T09:14:02;20.10;99.90
18041;DHT22;9145;48.588;9.250;2022-08-19T09:16:32;20.10;99.90
18041;DHT22;9145;48.588;9.250;2022-08-19T09:19:03;20.10;99.90
18041;DHT22;9145;48.588;9.250;2022-08-19T09:21:31;20.10;99.90
18041;DHT22;9145;48.588;9.250;2022-08-19T09:24:01;20.10;99.90
18041;DHT22;9145;48.588;9.250;2022-08-19T09:26:30;20.10;99.90
18041;DHT22;9145;48.588;9.250;2022-08-19T09:28:58;20.10;99.90
18041;DHT22;9145;48.588;9.250;2022-08-19T09:31:28;20.10;99.90
18041;DHT22;9145;48.588;9.250;2022-08-19T09:33:56;20.10;99.90
18041;DHT22;9145;48.588;9.250;2022-08-19T09:36:24;20.10;99.90
18041;DHT22;9145;48.588;9.250;2022-08-19T09:38:52;20.10;99.90
18041;DHT22;9145;48.588;9.250;2022-08-19T09:41:22;20.10;99.90
18041;DHT22;9145;48.588;9.250;2022-08-19T09:43:51;20.10;99.90
18041;DHT22;9145;48.588;9.250;2022-08-19T09:46:19;20.10;99.90
18041;DHT22;9145;48.588;9.250;2022-08-19T09:48:47;20.10;99.90
18041;DHT22;9145;48.588;9.250;2022-08-19T09:51:17;20.10;99.90
18041;DHT22;9145;48.588;9.250;2022-08-19T09:53:46;20.20;99.90
18041;DHT22;9145;48.588;9.250;2022-08-19T09:56:16;20.20;99.90
18041;DHT22;9145;48.588;9.250;2022-08-19T09:58:44;20.20;99.90
18041;DHT22;9145;48.588;9.250;2022-08-19T10:01:17;20.20;99.90
18041;DHT22;9145;48.588;9.250;2022-08-19T10:03:47;20.30;99.90
18041;DHT22;9145;48.588;9.250;2022-08-19T10:06:15;20.30;99.90
18041;DHT22;9145;48.588;9.250;2022-08-19T10:08:42;20.30;99.90
18041;DHT22;9145;48.588;9.250;2022-08-19T10:11:09;20.30;99.90
18041;DHT22;9145;48.588;9.250;2022-08-19T10:13:36;20.30;99.90
18041;DHT22;9145;48.588;9.250;2022-08-19T10:16:07;20.30;99.90
18041;DHT22;9145;48.588;9.250;2022-08-19T10:18:35;20.30;99.90
18041;DHT22;9145;48.588;9.250;2022-08-19T10:21:06;20.30;99.90
18041;DHT22;9145;48.588;9.250;2022-08-19T10:23:38;20.30;99.90
18041;DHT22;9145;48.588;9.250;2022-08-19T10:26:06;20.30;99.90
18041;DHT22;9145;48.588;9.250;2022-08-19T10:28:34;20.20;99.90
18041;DHT22;9145;48.588;9.250;2022-08-19T10:31:06;20.20;99.90
18041;DHT22;9145;48.588;9.250;2022-08-19T10:33:36;20.20;99.90
18041;DHT22;9145;48.588;9.250;2022-08-19T10:36:07;20.20;99.90
18041;DHT22;9145;48.588;9.250;2022-08-19T10:38:35;20.20;99.90
18041;DHT22;9145;48.588;9.250;2022-08-19T10:41:10;20.10;99.90
18041;DHT22;9145;48.588;9.250;2022-08-19T10:43:37;20.10;99.90
18041;DHT22;9145;48.588;9.250;2022-08-19T10:46:07;20.10;99.90
18041;DHT22;9145;48.588;9.250;2022-08-19T10:48:34;20.00;99.90
18041;DHT22;9145;48.588;9.250;2022-08-19T10:51:02;20.00;99.90
18041;DHT22;9145;48.588;9.250;2022-08-19T10:53:46;20.00;99.90
18041;DHT22;9145;48.588;9.250;2022-08-19T10:56:14;20.00;99.90
18041;DHT22;9145;48.588;9.250;2022-08-19T10:58:59;20.00;99.90
18041;DHT22;9145;48.588;9.250;2022-08-19T11:01:28;20.00;99.90
18041;DHT22;9145;48.588;9.250;2022-08-19T11:03:56;20.00;99.90
18041;DHT22;9145;48.588;9.250;2022-08-19T11:06:24;20.00;99.90
18041;DHT22;9145;48.588;9.250;2022-08-19T11:08:51;20.00;99.90
18041;DHT22;9145;48.588;9.250;2022-08-19T11:11:18;20.00;99.90
18041;DHT22;9145;48.588;9.250;2022-08-19T11:13:45;20.00;99.90
18041;DHT22;9145;48.588;9.250;2022-08-19T11:16:14;20.00;99.90
18041;DHT22;9145;48.588;9.250;2022-08-19T11:18:44;20.00;99.90
18041;DHT22;9145;48.588;9.250;2022-08-19T11:21:13;20.00;99.90
18041;DHT22;9145;48.588;9.250;2022-08-19T11:23:42;20.00;99.90
18041;DHT22;9145;48.588;9.250;2022-08-19T11:26:10;20.00;99.90
18041;DHT22;9145;48.588;9.250;2022-08-19T11:28:37;19.90;99.90
18041;DHT22;9145;48.588;9.250;2022-08-19T11:31:04;20.00;99.90
18041;DHT22;9145;48.588;9.250;2022-08-19T11:33:35;20.00;99.90
18041;DHT22;9145;48.588;9.250;2022-08-19T11:36:04;20.00;99.90
18041;DHT22;9145;48.588;9.250;2022-08-19T11:38:31;20.00;99.90
18041;DHT22;9145;48.588;9.250;2022-08-19T11:41:00;20.00;99.90
18041;DHT22;9145;48.588;9.250;2022-08-19T11:43:27;20.00;99.90
18041;DHT22;9145;48.588;9.250;2022-08-19T11:45:55;20.00;99.90
18041;DHT22;9145;48.588;9.250;2022-08-19T11:48:27;20.00;99.90
18041;DHT22;9145;48.588;9.250;2022-08-19T11:50:54;19.90;99.90
18041;DHT22;9145;48.588;9.250;2022-08-19T11:53:23;20.00;99.90
18041;DHT22;9145;48.588;9.250;2022-08-19T11:55:53;20.00;99.90
18041;DHT22;9145;48.588;9.250;2022-08-19T11:58:22;20.10;99.90
18041;DHT22;9145;48.588;9.250;2022-08-19T12:00:49;20.10;99.90
18041;DHT22;9145;48.588;9.250;2022-08-19T12:03:15;20.00;99.90
18041;DHT22;9145;48.588;9.250;2022-08-19T12:05:42;20.00;99.90
18041;DHT22;9145;48.588;9.250;2022-08-19T12:08:09;20.00;99.90
18041;DHT22;9145;48.588;9.250;2022-08-19T12:10:39;20.00;99.90
18041;DHT22;9145;48.588;9.250;2022-08-19T12:13:07;20.00;99.90
18041;DHT22;9145;48.588;9.250;2022-08-19T12:15:36;20.00;99.90
18041;DHT22;9145;48.588;9.250;2022-08-19T12:18:03;20.00;99.90
18041;DHT22;9145;48.588;9.250;2022-08-19T12:20:32;20.00;99.90
18041;DHT22;9145;48.588;9.250;2022-08-19T12:23:00;20.00;99.90
18041;DHT22;9145;48.588;9.250;2022-08-19T12:25:27;20.00;99.90
18041;DHT22;9145;48.588;9.250;2022-08-19T12:27:55;20.10;99.90
18041;DHT22;9145;48.588;9.250;2022-08-19T12:30:22;20.10;99.90
18041;DHT22;9145;48.588;9.250;2022-08-19T12:32:49;20.10;99.90
18041;DHT22;9145;48.588;9.250;2022-08-19T12:35:17;20.10;99.90
18041;DHT22;9145;48.588;9.250;2022-08-19T12:37:46;20.20;99.90
18041;DHT22;9145;48.588;9.250;2022-08-19T12:40:14;20.20;99.90
18041;DHT22;9145;48.588;9.250;2022-08-19T12:42:41;20.20;99.90
18041;DHT22;9145;48.588;9.250;2022-08-19T12:45:11;20.20;99.90
18041;DHT22;9145;48.588;9.250;2022-08-19T12:47:38;20.20;99.90
18041;DHT22;9145;48.588;9.250;2022-08-19T12:50:06;20.30;99.90
18041;DHT22;9145;48.588;9.250;2022-08-19T12:52:35;20.30;99.90
18041;DHT22;9145;48.588;9.250;2022-08-19T12:55:04;20.20;99.90
18041;DHT22;9145;48.588;9.250;2022-08-19T12:57:31;20.30;99.90
18041;DHT22;9145;48.588;9.250;2022-08-19T13:00:03;20.30;99.90
18041;DHT22;9145;48.588;9.250;2022-08-19T13:02:37;20.30;99.90
18041;DHT22;9145;48.588;9.250;2022-08-19T13:05:05;20.30;99.90
18041;DHT22;9145;48.588;9.250;2022-08-19T13:07:33;20.30;99.90
18041;DHT22;9145;48.588;9.250;2022-08-19T13:10:00;20.40;99.90
18041;DHT22;9145;48.588;9.250;2022-08-19T13:12:27;20.40;99.90
18041;DHT22;9145;48.588;9.250;2022-08-19T13:14:55;20.50;99.90
18041;DHT22;9145;48.588;9.250;2022-08-19T13:17:22;20.50;99.90
18041;DHT22;9145;48.588;9.250;2022-08-19T13:19:50;20.50;99.90
18041;DHT22;9145;48.588;9.250;2022-08-19T13:22:17;20.40;99.90
18041;DHT22;9145;48.588;9.250;2022-08-19T13:24:44;20.40;99.90
18041;DHT22;9145;48.588;9.250;2022-08-19T13:27:11;20.40;99.90
18041;DHT22;9145;48.588;9.250;2022-08-19T13:29:39;20.40;99.90
18041;DHT22;9145;48.588;9.250;2022-08-19T13:32:24;20.40;99.90
18041;DHT22;9145;48.588;9.250;2022-08-19T13:35:09;20.40;99.90
18041;DHT22;9145;48.588;9.250;2022-08-19T13:37:36;20.40;99.90
18041;DHT22;9145;48.588;9.250;2022-08-19T13:40:12;20.40;99.90
18041;DHT22;9145;48.588;9.250;2022-08-19T13:42:41;20.40;99.90
18041;DHT22;9145;48.588;9.250;2022-08-19T13:45:08;20.40;99.90
18041;DHT22;9145;48.588;9.250;2022-08-19T13:47:36;20.40;99.90
18041;DHT22;9145;48.588;9.250;2022-08-19T13:50:05;20.40;99.90
18041;DHT22;9145;48.588;9.250;2022-08-19T13:52:33;20.40;99.90
18041;DHT22;9145;48.588;9.250;2022-08-19T13:55:00;20.40;99.90
18041;DHT22;9145;48.588;9.250;2022-08-19T13:57:27;20.50;99.90
18041;DHT22;9145;48.588;9.250;2022-08-19T13:59:53;20.50;99.90
18041;DHT22;9145;48.588;9.250;2022-08-19T14:02:20;20.40;99.90
18041;DHT22;9145;48.588;9.250;2022-08-19T14:04:47;20.30;99.90
18041;DHT22;9145;48.588;9.250;2022-08-19T14:07:14;20.30;99.90
18041;DHT22;9145;48.588;9.250;2022-08-19T14:09:42;20.30;99.90
18041;DHT22;9145;48.588;9.250;2022-08-19T14:12:09;20.30;99.90
18041;DHT22;9145;48.588;9.250;2022-08-19T14:14:36;20.30;99.90
18041;DHT22;9145;48.588;9.250;2022-08-19T14:17:06;20.30;99.90
18041;DHT22;9145;48.588;9.250;2022-08-19T14:19:33;20.30;99.90
18041;DHT22;9145;48.588;9.250;2022-08-19T14:21:59;20.30;99.90
18041;DHT22;9145;48.588;9.250;2022-08-19T14:24:26;20.30;99.90
18041;DHT22;9145;48.588;9.250;2022-08-19T14:26:55;20.30;99.90
18041;DHT22;9145;48.588;9.250;2022-08-19T14:29:23;20.30;99.90
18041;DHT22;9145;48.588;9.250;2022-08-19T14:31:50;20.30;99.90
18041;DHT22;9145;48.588;9.250;2022-08-19T14:34:17;20.30;99.90
18041;DHT22;9145;48.588;9.250;2022-08-19T14:36:44;20.30;99.90
18041;DHT22;9145;48.588;9.250;2022-08-19T14:39:11;20.30;99.90
18041;DHT22;9145;48.588;9.250;2022-08-19T14:41:40;20.30;99.90
18041;DHT22;9145;48.588;9.250;2022-08-19T14:44:09;20.30;99.90
18041;DHT22;9145;48.588;9.250;2022-08-19T14:46:38;20.30;99.90
18041;DHT22;9145;48.588;9.250;2022-08-19T14:49:06;20.30;99.90
18041;DHT22;9145;48.588;9.250;2022-08-19T14:51:33;20.30;99.90
18041;DHT22;9145;48.588;9.250;2022-08-19T14:54:00;20.30;99.90
18041;DHT22;9145;48.588;9.250;2022-08-19T14:56:28;20.20;99.90
18041;DHT22;9145;48.588;9.250;2022-08-19T14:58:56;20.10;99.90
18041;DHT22;9145;48.588;9.250;2022-08-19T15:01:27;20.00;99.90
18041;DHT22;9145;48.588;9.250;2022-08-19T15:03:54;20.10;99.90
18041;DHT22;9145;48.588;9.250;2022-08-19T15:06:22;20.10;99.90
18041;DHT22;9145;48.588;9.250;2022-08-19T15:08:49;20.20;99.90
18041;DHT22;9145;48.588;9.250;2022-08-19T15:11:19;20.30;99.90
18041;DHT22;9145;48.588;9.250;2022-08-19T15:13:47;20.30;99.90
18041;DHT22;9145;48.588;9.250;2022-08-19T15:16:14;20.30;99.90
18041;DHT22;9145;48.588;9.250;2022-08-19T15:18:43;20.40;99.90
18041;DHT22;9145;48.588;9.250;2022-08-19T15:21:10;20.40;99.90
18041;DHT22;9145;48.588;9.250;2022-08-19T15:23:38;20.50;99.90
18041;DHT22;9145;48.588;9.250;2022-08-19T15:26:06;20.60;99.90
18041;DHT22;9145;48.588;9.250;2022-08-19T15:28:34;20.60;99.90
18041;DHT22;9145;48.588;9.250;2022-08-19T15:31:01;20.70;99.90
18041;DHT22;9145;48.588;9.250;2022-08-19T15:33:29;20.70;99.90
18041;DHT22;9145;48.588;9.250;2022-08-19T15:35:58;20.70;99.90
18041;DHT22;9145;48.588;9.250;2022-08-19T15:38:25;20.70;99.90
18041;DHT22;9145;48.588;9.250;2022-08-19T15:40:52;20.60;99.90
18041;DHT22;9145;48.588;9.250;2022-08-19T15:43:41;20.60;99.90
18041;DHT22;9145;48.588;9.250;2022-08-19T15:46:08;20.60;99.90
18041;DHT22;9145;48.588;9.250;2022-08-19T15:48:36;20.60;99.90
18041;DHT22;9145;48.588;9.250;2022-08-19T15:51:04;20.80;99.90
18041;DHT22;9145;48.588;9.250;2022-08-19T15:53:31;21.00;99.90
18041;DHT22;9145;48.588;9.250;2022-08-19T15:55:58;21.20;99.90